Home > Products > Valid Products > TAF

000
FTUS44 KHGX 261507 AAC
TAFCLL
TAF AMD
KCLL 261507Z 2615/2712 21012KT P6SM FEW015 SCT035
     FM262200 18009KT P6SM FEW050
     FM270300 20004KT P6SM SKC=



000
FTUS44 KHGX 261507 AAC
TAFCLL
TAF AMD
KCLL 261507Z 2615/2712 21012KT P6SM FEW015 SCT035
     FM262200 18009KT P6SM FEW050
     FM270300 20004KT P6SM SKC=



000
FTUS44 KHGX 261504 AAA
TAFSGR
TAF AMD
KSGR 261504Z 2615/2712 21007KT P6SM BKN025
     FM261800 20008KT P6SM SCT040
     FM262000 19009KT P6SM VCSH SCT050 SCT250
     FM262300 17009KT P6SM FEW050 SCT250=



000
FTUS44 KHGX 261504 AAA
TAFSGR
TAF AMD
KSGR 261504Z 2615/2712 21007KT P6SM BKN025
     FM261800 20008KT P6SM SCT040
     FM262000 19009KT P6SM VCSH SCT050 SCT250
     FM262300 17009KT P6SM FEW050 SCT250=



000
FTUS44 KHGX 261503 AAA
TAFIAH
TAF AMD
KIAH 261503Z 2615/2718 20008KT P6SM SCT025 BKN250
     FM262100 16009KT P6SM VCSH SCT050 SCT250
     FM270400 VRB04KT P6SM FEW250
     FM271000 VRB02KT P6SM FEW015
     FM271500 18006KT P6SM SCT030=



000
FTUS44 KHGX 261503 AAA
TAFIAH
TAF AMD
KIAH 261503Z 2615/2718 20008KT P6SM SCT025 BKN250
     FM262100 16009KT P6SM VCSH SCT050 SCT250
     FM270400 VRB04KT P6SM FEW250
     FM271000 VRB02KT P6SM FEW015
     FM271500 18006KT P6SM SCT030=



000
FTUS44 KHGX 261457 AAA
TAFGLS
TAF AMD
KGLS 261457Z 2615/2712 21009KT P6SM SCT020 SCT030
     FM261700 19009KT P6SM VCSH SCT030 SCT250
     FM262100 16010KT P6SM FEW030
     FM270600 19012KT P6SM SCT020=



000
FTUS44 KHGX 261457 AAA
TAFGLS
TAF AMD
KGLS 261457Z 2615/2712 21009KT P6SM SCT020 SCT030
     FM261700 19009KT P6SM VCSH SCT030 SCT250
     FM262100 16010KT P6SM FEW030
     FM270600 19012KT P6SM SCT020=



000
FTUS44 KHGX 261403 AAB
TAFCLL
TAF AMD
KCLL 261403Z 2614/2712 19008KT P6SM SCT007 BKN012
     FM261500 20006KT P6SM FEW030 SCT250
     FM262200 18009KT P6SM FEW050
     FM270300 20004KT P6SM SKC=



000
FTUS44 KHGX 261403 AAB
TAFCLL
TAF AMD
KCLL 261403Z 2614/2712 19008KT P6SM SCT007 BKN012
     FM261500 20006KT P6SM FEW030 SCT250
     FM262200 18009KT P6SM FEW050
     FM270300 20004KT P6SM SKC=



000
FTUS44 KHGX 261403 AAA
TAFCXO
TAF AMD
KCXO 261403Z 2614/2712 22006KT P6SM SCT015 SCT250
      TEMPO 2614/2615 BKN015
     FM261600 20009KT P6SM FEW030 SCT250
     FM262200 17009KT P6SM SCT050 SCT250
     FM270200 VRB04KT P6SM FEW250=



000
FTUS44 KHGX 261403 AAA
TAFCXO
TAF AMD
KCXO 261403Z 2614/2712 22006KT P6SM SCT015 SCT250
      TEMPO 2614/2615 BKN015
     FM261600 20009KT P6SM FEW030 SCT250
     FM262200 17009KT P6SM SCT050 SCT250
     FM270200 VRB04KT P6SM FEW250=



000
FTUS44 KHGX 261259 AAA
TAFCLL
TAF AMD
KCLL 261259Z 2613/2712 17006KT P6SM BKN007
     FM261500 20006KT P6SM FEW030 SCT250
     FM262200 18009KT P6SM FEW050
     FM270300 20004KT P6SM SKC=



000
FTUS44 KHGX 261259 AAA
TAFCLL
TAF AMD
KCLL 261259Z 2613/2712 17006KT P6SM BKN007
     FM261500 20006KT P6SM FEW030 SCT250
     FM262200 18009KT P6SM FEW050
     FM270300 20004KT P6SM SKC=



000
FTUS44 KHGX 261153 CCA
TAFIAH
TAF COR
KIAH 261153Z 2612/2718 20004KT P6SM FEW250
     FM261600 19006KT P6SM FEW040
     FM262100 16009KT P6SM SCT050 SCT250
     FM270400 VRB04KT P6SM FEW250
     FM271000 VRB02KT P6SM FEW015
     FM271500 18006KT P6SM SCT030=



000
FTUS44 KHGX 261153 CCA
TAFIAH
TAF COR
KIAH 261153Z 2612/2718 20004KT P6SM FEW250
     FM261600 19006KT P6SM FEW040
     FM262100 16009KT P6SM SCT050 SCT250
     FM270400 VRB04KT P6SM FEW250
     FM271000 VRB02KT P6SM FEW015
     FM271500 18006KT P6SM SCT030=



000
FTUS44 KHGX 261125
TAFSGR
TAF
KSGR 261125Z 2612/2712 VRB03KT P6SM FEW020
     FM261500 21007KT P6SM SCT030
     FM262000 19009KT P6SM VCSH SCT050 SCT250
     FM262300 17009KT P6SM FEW050 SCT250=



000
FTUS44 KHGX 261125
TAFCXO
TAF
KCXO 261125Z 2612/2712 VRB03KT P6SM SCT250
     FM261500 20009KT P6SM FEW030 SCT250
     FM262200 17009KT P6SM SCT050 SCT250
     FM270200 VRB04KT P6SM FEW250=



000
FTUS44 KHGX 261125
TAFLBX
TAF
KLBX 261125Z 2612/2712 VRB02KT P6SM FEW020
     FM261500 19007KT P6SM SCT030
     FM262000 19009KT P6SM VCSH SCT050 SCT250
     FM262300 17009KT P6SM FEW050 SCT250=



000
FTUS44 KHGX 261125
TAFCLL
TAF
KCLL 261125Z 2612/2712 VRB04KT P6SM FEW020 SCT250
     FM261500 20006KT P6SM FEW030 SCT250
     FM262200 18009KT P6SM FEW050
     FM270300 20004KT P6SM SKC=



000
FTUS44 KHGX 261125
TAFCLL
TAF
KCLL 261125Z 2612/2712 VRB04KT P6SM FEW020 SCT250
     FM261500 20006KT P6SM FEW030 SCT250
     FM262200 18009KT P6SM FEW050
     FM270300 20004KT P6SM SKC=



000
FTUS44 KHGX 261125
TAFUTS
TAF
KUTS 261125Z 2612/2712 19004KT P6SM SCT250
     FM261500 20008KT P6SM SCT030 SCT250
     FM270100 18008KT P6SM SCT250
     FM270900 20004KT P6SM FEW250=



000
FTUS44 KHGX 261125
TAFHOU
TAF
KHOU 261125Z 2612/2712 VRB03KT P6SM SCT025 SCT250
     FM261500 21007KT P6SM SCT030
     FM262000 19009KT P6SM VCSH SCT050 SCT250
     FM262300 17009KT P6SM FEW050 SCT250=



000
FTUS44 KHGX 261125
TAFUTS
TAF
KUTS 261125Z 2612/2712 19004KT P6SM SCT250
     FM261500 20008KT P6SM SCT030 SCT250
     FM270100 18008KT P6SM SCT250
     FM270900 20004KT P6SM FEW250=



000
FTUS44 KHGX 261125
TAFIAH
TAF
KIAH 261125Z 2612/2718 20004KT P6SM FEW250
     FM261600 19006KT P6SM FEW040=



000
FTUS44 KHGX 261125
TAFIAH
TAF

FM271500
 18006KT P6SM SCT030=



000
FTUS44 KHGX 261125
TAFIAH
TAF
KIAH 261125Z 2612/2718 20004KT P6SM FEW250
     FM261600 19006KT P6SM FEW040=



000
FTUS44 KHGX 261125
TAFIAH
TAF

FM271500
 18006KT P6SM SCT030=



000
FTUS44 KHGX 261125
TAFLBX
TAF
KLBX 261125Z 2612/2712 VRB02KT P6SM FEW020
     FM261500 19007KT P6SM SCT030
     FM262000 19009KT P6SM VCSH SCT050 SCT250
     FM262300 17009KT P6SM FEW050 SCT250=



000
FTUS44 KHGX 261125
TAFHOU
TAF
KHOU 261125Z 2612/2712 VRB03KT P6SM SCT025 SCT250
     FM261500 21007KT P6SM SCT030
     FM262000 19009KT P6SM VCSH SCT050 SCT250
     FM262300 17009KT P6SM FEW050 SCT250=



000
FTUS44 KHGX 261125
TAFCXO
TAF
KCXO 261125Z 2612/2712 VRB03KT P6SM SCT250
     FM261500 20009KT P6SM FEW030 SCT250
     FM262200 17009KT P6SM SCT050 SCT250
     FM270200 VRB04KT P6SM FEW250=



000
FTUS44 KHGX 261125
TAFGLS
TAF
KGLS 261125Z 2612/2712 22005KT P6SM SCT020 SCT030
     FM261700 19009KT P6SM VCSH SCT030 SCT250
     FM262100 16010KT P6SM FEW030
     FM270600 19012KT P6SM SCT020=



000
FTUS44 KHGX 261125
TAFSGR
TAF
KSGR 261125Z 2612/2712 VRB03KT P6SM FEW020
     FM261500 21007KT P6SM SCT030
     FM262000 19009KT P6SM VCSH SCT050 SCT250
     FM262300 17009KT P6SM FEW050 SCT250=



000
FTUS44 KHGX 261125
TAFGLS
TAF
KGLS 261125Z 2612/2712 22005KT P6SM SCT020 SCT030
     FM261700 19009KT P6SM VCSH SCT030 SCT250
     FM262100 16010KT P6SM FEW030
     FM270600 19012KT P6SM SCT020=



000
FTUS44 KHGX 260522
TAFLBX
TAF
KLBX 260522Z 2606/2706 20004KT P6SM SCT250
     FM260800 VRB02KT 3SM BR SKC
     FM261500 18008KT P6SM SCT025
     FM262100 17011KT P6SM VCSH FEW040 SCT250
     FM270100 18007KT P6SM SCT250=



000
FTUS44 KHGX 260522
TAFCLL
TAF
KCLL 260522Z 2606/2706 17003KT P6SM FEW250
     FM261500 20007KT P6SM SCT250
     FM261900 18010KT P6SM FEW050=



000
FTUS44 KHGX 260522
TAFCXO
TAF
KCXO 260522Z 2606/2706 15003KT P6SM SCT250
     FM260900 00000KT 5SM BR SCT250
     FM261400 19007KT P6SM SCT250
     FM270100 16006KT P6SM SCT250=



000
FTUS44 KHGX 260522
TAFHOU
TAF
KHOU 260522Z 2606/2706 19004KT P6SM FEW250
     FM261500 21007KT P6SM SCT030
     FM262000 19009KT P6SM SCT045
     FM262100 17006KT P6SM VCSH SCT050 SCT250
     FM270100 17009KT P6SM SCT250=



000
FTUS44 KHGX 260522
TAFUTS
TAF
KUTS 260522Z 2606/2706 17003KT P6SM SCT250
     FM261100 19004KT 6SM BR SCT250
     FM261400 20008KT P6SM SCT250
     FM270100 17006KT P6SM SCT250=



000
FTUS44 KHGX 260522
TAFSGR
TAF
KSGR 260522Z 2606/2706 19008KT P6SM SCT250
     FM260900 VRB03KT 5SM BR SKC
     FM261500 20007KT P6SM SCT030
     FM262100 17011KT P6SM VCSH SCT050 SCT250
     FM270100 18007KT P6SM SCT250=



000
FTUS44 KHGX 260522
TAFGLS
TAF
KGLS 260522Z 2606/2706 19010KT P6SM FEW250
     FM261300 20009KT P6SM VCSH SCT250
     FM261800 16010KT P6SM SCT030=



000
FTUS44 KHGX 260522
TAFIAH
TAF
KIAH 260522Z 2606/2712 18004KT P6SM SCT250
     FM261500 21006KT P6SM SCT030
     FM261800 18009KT P6SM SCT045
     FM270400 00000KT P6SM FEW250=



000
FTUS44 KHGX 260522
TAFIAH
TAF
KIAH 260522Z 2606/2712 18004KT P6SM SCT250
     FM261500 21006KT P6SM SCT030
     FM261800 18009KT P6SM SCT045
     FM270400 00000KT P6SM FEW250=



000
FTUS44 KHGX 260522
TAFSGR
TAF
KSGR 260522Z 2606/2706 19008KT P6SM SCT250
     FM260900 VRB03KT 5SM BR SKC
     FM261500 20007KT P6SM SCT030
     FM262100 17011KT P6SM VCSH SCT050 SCT250
     FM270100 18007KT P6SM SCT250=



000
FTUS44 KHGX 260522
TAFLBX
TAF
KLBX 260522Z 2606/2706 20004KT P6SM SCT250
     FM260800 VRB02KT 3SM BR SKC
     FM261500 18008KT P6SM SCT025
     FM262100 17011KT P6SM VCSH FEW040 SCT250
     FM270100 18007KT P6SM SCT250=



000
FTUS44 KHGX 260522
TAFUTS
TAF
KUTS 260522Z 2606/2706 17003KT P6SM SCT250
     FM261100 19004KT 6SM BR SCT250
     FM261400 20008KT P6SM SCT250
     FM270100 17006KT P6SM SCT250=



000
FTUS44 KHGX 260522
TAFGLS
TAF
KGLS 260522Z 2606/2706 19010KT P6SM FEW250
     FM261300 20009KT P6SM VCSH SCT250
     FM261800 16010KT P6SM SCT030=



000
FTUS44 KHGX 260522
TAFCXO
TAF
KCXO 260522Z 2606/2706 15003KT P6SM SCT250
     FM260900 00000KT 5SM BR SCT250
     FM261400 19007KT P6SM SCT250
     FM270100 16006KT P6SM SCT250=



000
FTUS44 KHGX 260522
TAFCLL
TAF
KCLL 260522Z 2606/2706 17003KT P6SM FEW250
     FM261500 20007KT P6SM SCT250
     FM261900 18010KT P6SM FEW050=



000
FTUS44 KHGX 260522
TAFHOU
TAF
KHOU 260522Z 2606/2706 19004KT P6SM FEW250
     FM261500 21007KT P6SM SCT030
     FM262000 19009KT P6SM SCT045
     FM262100 17006KT P6SM VCSH SCT050 SCT250
     FM270100 17009KT P6SM SCT250=



000
FTUS44 KHGX 260324 AAA
TAFIAH
TAF AMD
KIAH 260324Z 2603/2706 17003KT P6SM SCT250
     FM261500 21006KT P6SM SCT030
     FM261800 18009KT P6SM SCT045
     FM270400 00000KT P6SM FEW250=



000
FTUS44 KHGX 260324 AAA
TAFHOU
TAF AMD
KHOU 260324Z 2603/2624 18003KT P6SM SCT250
     FM261500 21007KT P6SM SCT030
     FM262000 18009KT P6SM SCT045=



000
FTUS44 KHGX 260324 AAA
TAFIAH
TAF AMD
KIAH 260324Z 2603/2706 17003KT P6SM SCT250
     FM261500 21006KT P6SM SCT030
     FM261800 18009KT P6SM SCT045
     FM270400 00000KT P6SM FEW250=



000
FTUS44 KHGX 260324 AAA
TAFHOU
TAF AMD
KHOU 260324Z 2603/2624 18003KT P6SM SCT250
     FM261500 21007KT P6SM SCT030
     FM262000 18009KT P6SM SCT045=



000
FTUS44 KHGX 252337
TAFCXO
TAF
KCXO 252337Z 2600/2624 12007KT P6SM FEW050
     FM260200 VRB03KT P6SM SKC
     FM260900 VRB03KT 5SM BR SCT250
     FM261400 19007KT P6SM SCT250=



000
FTUS44 KHGX 252337
TAFUTS
TAF
KUTS 252337Z 2600/2624 VRB04KT P6SM SKC
     FM261100 19004KT 6SM BR SCT250
     FM261400 20008KT P6SM SCT250=



000
FTUS44 KHGX 252337
TAFCLL
TAF
KCLL 252337Z 2600/2624 16006KT P6SM FEW040 FEW250
     FM261500 20007KT P6SM SCT250
     FM261900 18010KT P6SM FEW050=



000
FTUS44 KHGX 252337
TAFIAH
TAF
KIAH 252337Z 2600/2706 12010KT P6SM VCSH FEW060 SCT250
     FM260200 VRB03KT P6SM SCT250
     FM261500 21006KT P6SM SCT030
     FM261800 18009KT P6SM SCT045
     FM270400 00000KT P6SM FEW250=



000
FTUS44 KHGX 252337
TAFLBX
TAF
KLBX 252337Z 2600/2624 18012KT P6SM SKC
     FM260800 VRB02KT 3SM BR SKC
     FM261500 18008KT P6SM SCT025
     FM262100 17011KT P6SM VCSH FEW040 SCT250=



000
FTUS44 KHGX 252337
TAFGLS
TAF
KGLS 252337Z 2600/2624 17010KT P6SM SKC
     FM261300 20009KT P6SM VCSH SCT250
     FM261800 16010KT P6SM SCT030=



000
FTUS44 KHGX 252337
TAFIAH
TAF
KIAH 252337Z 2600/2706 12010KT P6SM VCSH FEW060 SCT250
     FM260200 VRB03KT P6SM SCT250
     FM261500 21006KT P6SM SCT030
     FM261800 18009KT P6SM SCT045
     FM270400 00000KT P6SM FEW250=



000
FTUS44 KHGX 252337
TAFLBX
TAF
KLBX 252337Z 2600/2624 18012KT P6SM SKC
     FM260800 VRB02KT 3SM BR SKC
     FM261500 18008KT P6SM SCT025
     FM262100 17011KT P6SM VCSH FEW040 SCT250=



000
FTUS44 KHGX 252337
TAFSGR
TAF
KSGR 252337Z 2600/2624 15006KT P6SM VCSH FEW060 SCT250
     FM260130 VRB03KT P6SM SCT250
     FM260900 VRB03KT 5SM BR SKC
     FM261500 20007KT P6SM SCT030=



000
FTUS44 KHGX 252337
TAFHOU
TAF
KHOU 252337Z 2600/2624 17009KT P6SM VCSH FEW060 SCT250
     FM260130 VRB03KT P6SM SCT250
     FM261500 21007KT P6SM SCT030
     FM262000 18009KT P6SM SCT045=



000
FTUS44 KHGX 252337
TAFCLL
TAF
KCLL 252337Z 2600/2624 16006KT P6SM FEW040 FEW250
     FM261500 20007KT P6SM SCT250
     FM261900 18010KT P6SM FEW050=



000
FTUS44 KHGX 252337
TAFSGR
TAF
KSGR 252337Z 2600/2624 15006KT P6SM VCSH FEW060 SCT250
     FM260130 VRB03KT P6SM SCT250
     FM260900 VRB03KT 5SM BR SKC
     FM261500 20007KT P6SM SCT030=



000
FTUS44 KHGX 252337
TAFUTS
TAF
KUTS 252337Z 2600/2624 VRB04KT P6SM SKC
     FM261100 19004KT 6SM BR SCT250
     FM261400 20008KT P6SM SCT250=



000
FTUS44 KHGX 252337
TAFHOU
TAF
KHOU 252337Z 2600/2624 17009KT P6SM VCSH FEW060 SCT250
     FM260130 VRB03KT P6SM SCT250
     FM261500 21007KT P6SM SCT030
     FM262000 18009KT P6SM SCT045=



000
FTUS44 KHGX 252337
TAFCXO
TAF
KCXO 252337Z 2600/2624 12007KT P6SM FEW050
     FM260200 VRB03KT P6SM SKC
     FM260900 VRB03KT 5SM BR SCT250
     FM261400 19007KT P6SM SCT250=



000
FTUS44 KHGX 252337
TAFGLS
TAF
KGLS 252337Z 2600/2624 17010KT P6SM SKC
     FM261300 20009KT P6SM VCSH SCT250
     FM261800 16010KT P6SM SCT030=



000
FTUS44 KHGX 252126 AAB
TAFLBX
TAF AMD
KLBX 252126Z 2521/2618 20008KT P6SM VCSH SCT030 SCT050
     FM252230 18006KT P6SM SCT250
     FM260800 VRB02KT 3SM BR SKC
     FM261500 18008KT P6SM SCT025=



000
FTUS44 KHGX 252126 AAB
TAFLBX
TAF AMD
KLBX 252126Z 2521/2618 20008KT P6SM VCSH SCT030 SCT050
     FM252230 18006KT P6SM SCT250
     FM260800 VRB02KT 3SM BR SKC
     FM261500 18008KT P6SM SCT025=



000
FTUS44 KHGX 252122 AAA
TAFGLS
TAF AMD
KGLS 252122Z 2521/2618 17010KT P6SM SKC
     FM261500 20009KT P6SM SCT250=



000
FTUS44 KHGX 252122 AAA
TAFGLS
TAF AMD
KGLS 252122Z 2521/2618 17010KT P6SM SKC
     FM261500 20009KT P6SM SCT250=



000
FTUS44 KHGX 252121 AAA
TAFHOU
TAF AMD
KHOU 252121Z 2521/2618 15005KT P6SM VCSH SCT045 SCT250
     FM260100 VRB04KT P6SM SCT250
     FM261500 21007KT P6SM SCT030=



000
FTUS44 KHGX 252121 AAA
TAFIAH
TAF AMD
KIAH 252121Z 2521/2624 13006KT P6SM VCSH FEW060 SCT090
     FM260100 VRB04KT P6SM SCT250
     FM261500 20006KT P6SM SCT030
     FM261800 18009KT P6SM SCT045=



000
FTUS44 KHGX 252121 AAA
TAFHOU
TAF AMD
KHOU 252121Z 2521/2618 15005KT P6SM VCSH SCT045 SCT250
     FM260100 VRB04KT P6SM SCT250
     FM261500 21007KT P6SM SCT030=



000
FTUS44 KHGX 252121 AAA
TAFIAH
TAF AMD
KIAH 252121Z 2521/2624 13006KT P6SM VCSH FEW060 SCT090
     FM260100 VRB04KT P6SM SCT250
     FM261500 20006KT P6SM SCT030
     FM261800 18009KT P6SM SCT045=



000
FTUS44 KHGX 252026 AAA
TAFLBX
TAF AMD
KLBX 252026Z 2520/2618 19007KT P6SM VCTS SCT030CB
      TEMPO 2520/2522 3SM TSRA BR BKN025CB
     FM260100 VRB03KT P6SM SCT250
     FM260800 VRB02KT 3SM BR SKC
     FM261500 18008KT P6SM SCT025=



000
FTUS44 KHGX 251720
TAFCLL
TAF
KCLL 251720Z 2518/2618 21007KT P6SM SCT040
     FM260200 18005KT P6SM SCT250
     FM261500 20009KT P6SM SCT250=



000
FTUS44 KHGX 251720
TAFCLL
TAF
KCLL 251720Z 2518/2618 21007KT P6SM SCT040
     FM260200 18005KT P6SM SCT250
     FM261500 20009KT P6SM SCT250=



000
FTUS44 KHGX 251720
TAFCXO
TAF
KCXO 251720Z 2518/2618 19005KT P6SM SCT035
     FM260200 18004KT P6SM SCT250
     FM260900 VRB03KT 3SM BR SCT250
     FM261400 19007KT P6SM SCT250=



000
FTUS44 KHGX 251720
TAFSGR
TAF
KSGR 251720Z 2518/2618 23005KT P6SM SCT040
     FM252200 17009KT P6SM VCTS SCT045CB
     FM260100 VRB04KT P6SM SCT250
     FM260900 VRB03KT 4SM BR SKC
     FM261500 20007KT P6SM SCT030=



000
FTUS44 KHGX 251720
TAFIAH
TAF
KIAH 251720Z 2518/2624 23006KT P6SM SCT040
     FM252200 13007KT P6SM VCTS SCT050CB
     FM260100 VRB04KT P6SM SCT250
     FM261500 20006KT P6SM SCT030
     FM261800 18009KT P6SM SCT045=



000
FTUS44 KHGX 251720
TAFSGR
TAF
KSGR 251720Z 2518/2618 23005KT P6SM SCT040
     FM252200 17009KT P6SM VCTS SCT045CB
     FM260100 VRB04KT P6SM SCT250
     FM260900 VRB03KT 4SM BR SKC
     FM261500 20007KT P6SM SCT030=



000
FTUS44 KHGX 251720
TAFIAH
TAF
KIAH 251720Z 2518/2624 23006KT P6SM SCT040
     FM252200 13007KT P6SM VCTS SCT050CB
     FM260100 VRB04KT P6SM SCT250
     FM261500 20006KT P6SM SCT030
     FM261800 18009KT P6SM SCT045=



000
FTUS44 KHGX 251720
TAFUTS
TAF
KUTS 251720Z 2518/2618 21007KT P6SM SCT040
     FM260200 18005KT P6SM SCT250
     FM261100 19004KT 5SM BR SCT250
     FM261400 20008KT P6SM SCT250=



000
FTUS44 KHGX 251720
TAFUTS
TAF
KUTS 251720Z 2518/2618 21007KT P6SM SCT040
     FM260200 18005KT P6SM SCT250
     FM261100 19004KT 5SM BR SCT250
     FM261400 20008KT P6SM SCT250=



000
FTUS44 KHGX 251720
TAFCXO
TAF
KCXO 251720Z 2518/2618 19005KT P6SM SCT035
     FM260200 18004KT P6SM SCT250
     FM260900 VRB03KT 3SM BR SCT250
     FM261400 19007KT P6SM SCT250=



000
FTUS44 KHGX 251720
TAFLBX
TAF
KLBX 251720Z 2518/2618 19007KT P6SM VCTS SCT030CB
     FM260100 VRB03KT P6SM SCT250
     FM260800 VRB02KT 3SM BR SKC
     FM261500 18008KT P6SM SCT025=



000
FTUS44 KHGX 251720
TAFGLS
TAF
KGLS 251720Z 2518/2618 18008KT P6SM SCT025
     FM261500 20009KT P6SM SCT250=



000
FTUS44 KHGX 251720
TAFHOU
TAF
KHOU 251720Z 2518/2618 23006KT P6SM SCT040
     FM252100 17007KT P6SM VCTS SCT045CB
     FM260100 VRB04KT P6SM SCT250
     FM261500 21007KT P6SM SCT030=



000
FTUS44 KHGX 251501 AAA
TAFHOU
TAF AMD
KHOU 251501Z 2515/2612 VRB05KT P6SM SCT040 SCT110
     FM260100 VRB04KT P6SM SCT250=



000
FTUS44 KHGX 251501 AAA
TAFHOU
TAF AMD
KHOU 251501Z 2515/2612 VRB05KT P6SM SCT040 SCT110
     FM260100 VRB04KT P6SM SCT250=



000
FTUS44 KHGX 251456 AAA
TAFIAH
TAF AMD
KIAH 251456Z 2515/2618 27006KT P6SM SCT040
     FM252300 12007KT P6SM SCT050
     FM260100 VRB04KT P6SM SCT250
     FM261500 19005KT P6SM SCT040 SCT250=



000
FTUS44 KHGX 251456 AAA
TAFIAH
TAF AMD
KIAH 251456Z 2515/2618 27006KT P6SM SCT040
     FM252300 12007KT P6SM SCT050
     FM260100 VRB04KT P6SM SCT250
     FM261500 19005KT P6SM SCT040 SCT250=



000
FTUS44 KHGX 251430 AAA
TAFLBX
TAF AMD
KLBX 251430Z 2515/2612 VRB03KT P6SM BKN250
     FM251800 VRB06KT P6SM SCT045
     FM260100 VRB04KT P6SM SCT250=



000
FTUS44 KHGX 251430 AAA
TAFLBX
TAF AMD
KLBX 251430Z 2515/2612 VRB03KT P6SM BKN250
     FM251800 VRB06KT P6SM SCT045
     FM260100 VRB04KT P6SM SCT250=



000
FTUS44 KHGX 251429 AAA
TAFCXO
TAF AMD
KCXO 251429Z 2514/2612 26004KT P6SM SCT010 SCT016
      TEMPO 2514/2516 BKN010 BKN016
     FM251600 VRB06KT P6SM FEW040
     FM260200 18004KT P6SM SCT250=



000
FTUS44 KHGX 251429 AAA
TAFCXO
TAF AMD
KCXO 251429Z 2514/2612 26004KT P6SM SCT010 SCT016
      TEMPO 2514/2516 BKN010 BKN016
     FM251600 VRB06KT P6SM FEW040
     FM260200 18004KT P6SM SCT250=



000
FTUS44 KHGX 251159 CCA
TAFSGR
TAF COR
KSGR 251159Z 2512/2612 00000KT 4SM BR SKC
      TEMPO 2512/2513 2SM BR
     FM251600 VRB06KT P6SM SCT045
     FM260100 VRB04KT P6SM SCT250=



000
FTUS44 KHGX 251159 CCA
TAFSGR
TAF COR
KSGR 251159Z 2512/2612 00000KT 4SM BR SKC
      TEMPO 2512/2513 2SM BR
     FM251600 VRB06KT P6SM SCT045
     FM260100 VRB04KT P6SM SCT250=



000
FTUS44 KHGX 251158 CCA
TAFCXO
TAF COR
KCXO 251158Z 2512/2612 00000KT 5SM BR SKC
      TEMPO 2512/2513 2SM BR
     FM251500 VRB06KT P6SM FEW040
     FM260200 18004KT P6SM SCT250=



000
FTUS44 KHGX 251158 CCA
TAFCXO
TAF COR
KCXO 251158Z 2512/2612 00000KT 5SM BR SKC
      TEMPO 2512/2513 2SM BR
     FM251500 VRB06KT P6SM FEW040
     FM260200 18004KT P6SM SCT250=



000
FTUS44 KHGX 251157 CCA
TAFUTS
TAF COR
KUTS 251157Z 2512/2612 00000KT 5SM BR SKC
     FM251400 VRB05KT P6SM FEW040
     FM260200 18004KT P6SM SCT250=



000
FTUS44 KHGX 251157 CCA
TAFUTS
TAF COR
KUTS 251157Z 2512/2612 00000KT 5SM BR SKC
     FM251400 VRB05KT P6SM FEW040
     FM260200 18004KT P6SM SCT250=



000
FTUS44 KHGX 251121
TAFGLS
TAF
KGLS 251121Z 2512/2612 VRB04KT P6SM VCTS FEW025 SCT035CB
     FM251500 16007KT P6SM FEW250
     FM260400 21004KT P6SM SCT250=



000
FTUS44 KHGX 251121
TAFIAH
TAF
KIAH 251121Z 2512/2618 VRB02KT P6SM SCT250
     FM251500 VRB06KT P6SM SCT035
     FM252300 12007KT P6SM SCT050 SCT250
     FM260100 VRB04KT P6SM SCT250
     FM261500 19005KT P6SM SCT040 SCT250=



000
FTUS44 KHGX 251121
TAFCLL
TAF
KCLL 251121Z 2512/2612 VRB03KT P6SM SKC
     FM251500 22005KT P6SM FEW030
     FM251600 VRB06KT P6SM SCT050 SCT250
     FM260400 20004KT P6SM SCT250=



000
FTUS44 KHGX 251121
TAFUTS
TAF
KUTS 251121Z 2512/2612 00000KT P6SM SKC
     FM251500 VRB05KT P6SM FEW040
     FM260200 18004KT P6SM SCT250=



000
FTUS44 KHGX 251121
TAFHOU
TAF
KHOU 251121Z 2512/2612 VRB02KT P6SM FEW250
     FM251600 VRB06KT P6SM SCT045
     FM260100 VRB04KT P6SM SCT250=



000
FTUS44 KHGX 251121
TAFCXO
TAF
KCXO 251121Z 2512/2612 00000KT 6SM BR SKC
     FM251500 VRB06KT P6SM FEW040
     FM260200 18004KT P6SM SCT250=



000
FTUS44 KHGX 251121
TAFSGR
TAF
KSGR 251121Z 2512/2612 00000KT 5SM BR SKC
     FM251600 VRB06KT P6SM SCT045
     FM260100 VRB04KT P6SM SCT250=



000
FTUS44 KHGX 251121
TAFLBX
TAF
KLBX 251121Z 2512/2612 15003KT 3SM BR SKC
      TEMPO 2512/2513 1SM BR
     FM251600 VRB06KT P6SM SCT045
     FM260100 VRB04KT P6SM SCT250=



000
FTUS44 KHGX 251121
TAFUTS
TAF
KUTS 251121Z 2512/2612 00000KT P6SM SKC
     FM251500 VRB05KT P6SM FEW040
     FM260200 18004KT P6SM SCT250=



000
FTUS44 KHGX 251121
TAFIAH
TAF
KIAH 251121Z 2512/2618 VRB02KT P6SM SCT250
     FM251500 VRB06KT P6SM SCT035
     FM252300 12007KT P6SM SCT050 SCT250
     FM260100 VRB04KT P6SM SCT250
     FM261500 19005KT P6SM SCT040 SCT250=



000
FTUS44 KHGX 251121
TAFLBX
TAF
KLBX 251121Z 2512/2612 15003KT 3SM BR SKC
      TEMPO 2512/2513 1SM BR
     FM251600 VRB06KT P6SM SCT045
     FM260100 VRB04KT P6SM SCT250=



000
FTUS44 KHGX 251121
TAFCXO
TAF
KCXO 251121Z 2512/2612 00000KT 6SM BR SKC
     FM251500 VRB06KT P6SM FEW040
     FM260200 18004KT P6SM SCT250=



000
FTUS44 KHGX 251121
TAFHOU
TAF
KHOU 251121Z 2512/2612 VRB02KT P6SM FEW250
     FM251600 VRB06KT P6SM SCT045
     FM260100 VRB04KT P6SM SCT250=



000
FTUS44 KHGX 251121
TAFGLS
TAF
KGLS 251121Z 2512/2612 VRB04KT P6SM VCTS FEW025 SCT035CB
     FM251500 16007KT P6SM FEW250
     FM260400 21004KT P6SM SCT250=



000
FTUS44 KHGX 251121
TAFCLL
TAF
KCLL 251121Z 2512/2612 VRB03KT P6SM SKC
     FM251500 22005KT P6SM FEW030
     FM251600 VRB06KT P6SM SCT050 SCT250
     FM260400 20004KT P6SM SCT250=



000
FTUS44 KHGX 251121
TAFSGR
TAF
KSGR 251121Z 2512/2612 00000KT 5SM BR SKC
     FM251600 VRB06KT P6SM SCT045
     FM260100 VRB04KT P6SM SCT250=



000
FTUS44 KHGX 250923 AAA
TAFGLS
TAF AMD
KGLS 250923Z 2509/2606 21004KT P6SM SKC
     FM251000 24007KT P6SM VCSH SCT030
     FM251500 18007KT P6SM FEW250
     FM260400 21004KT P6SM SCT250=



000
FTUS44 KHGX 250923 AAA
TAFGLS
TAF AMD
KGLS 250923Z 2509/2606 21004KT P6SM SKC
     FM251000 24007KT P6SM VCSH SCT030
     FM251500 18007KT P6SM FEW250
     FM260400 21004KT P6SM SCT250=



000
FTUS44 KHGX 250907 AAA
TAFHOU
TAF AMD
KHOU 250907Z 2509/2606 VRB02KT P6SM FEW250
     FM251500 23005KT P6SM FEW030
     FM252000 17008KT P6SM SCT050
     FM260200 18004KT P6SM SCT250=



000
FTUS44 KHGX 250907 AAA
TAFHOU
TAF AMD
KHOU 250907Z 2509/2606 VRB02KT P6SM FEW250
     FM251500 23005KT P6SM FEW030
     FM252000 17008KT P6SM SCT050
     FM260200 18004KT P6SM SCT250=



000
FTUS44 KHGX 250907 AAA
TAFSGR
TAF AMD
KSGR 250907Z 2509/2606 00000KT 5SM BR SKC
      TEMPO 2511/2512 2SM BR
     FM251300 22005KT P6SM FEW030
     FM252000 17008KT P6SM SCT050
     FM260200 18004KT P6SM SCT250=



000
FTUS44 KHGX 250906 AAA
TAFIAH
TAF AMD
KIAH 250906Z 2509/2612 VRB02KT P6SM SCT250
     FM251500 22005KT P6SM FEW030
     FM252100 17008KT P6SM SCT050
     FM260200 18004KT P6SM SCT250=



000
FTUS44 KHGX 250906 AAA
TAFIAH
TAF AMD
KIAH 250906Z 2509/2612 VRB02KT P6SM SCT250
     FM251500 22005KT P6SM FEW030
     FM252100 17008KT P6SM SCT050
     FM260200 18004KT P6SM SCT250=



000
FTUS44 KHGX 250850 AAA
TAFLBX
TAF AMD
KLBX 250850Z 2509/2606 15003KT 3SM BR SKC
      TEMPO 2509/2512 1SM BR
     FM251300 22005KT P6SM SCT030
     FM251800 17008KT P6SM SCT050
     FM260200 18004KT P6SM SCT250=



000
FTUS44 KHGX 250850 AAA
TAFLBX
TAF AMD
KLBX 250850Z 2509/2606 15003KT 3SM BR SKC
      TEMPO 2509/2512 1SM BR
     FM251300 22005KT P6SM SCT030
     FM251800 17008KT P6SM SCT050
     FM260200 18004KT P6SM SCT250=



000
FTUS44 KHGX 250520
TAFSGR
TAF
KSGR 250520Z 2506/2606 00000KT P6SM SKC
     FM251500 22005KT P6SM FEW030
     FM252000 17008KT P6SM SCT050
     FM260200 18004KT P6SM SCT250=



000
FTUS44 KHGX 250520
TAFLBX
TAF
KLBX 250520Z 2506/2606 15003KT P6SM SKC
     FM251500 22005KT P6SM SCT030
     FM251800 17008KT P6SM SCT050
     FM260200 18004KT P6SM SCT250=



000
FTUS44 KHGX 250520
TAFCXO
TAF
KCXO 250520Z 2506/2606 00000KT P6SM SKC
     FM251500 20005KT P6SM FEW030
     FM252100 17008KT P6SM SCT050
     FM260200 18004KT P6SM SCT250=



000
FTUS44 KHGX 250520
TAFUTS
TAF
KUTS 250520Z 2506/2606 00000KT P6SM SKC
     FM251500 20005KT P6SM FEW030
     FM252100 17008KT P6SM SCT050
     FM260200 18004KT P6SM SCT250=



000
FTUS44 KHGX 250520
TAFHOU
TAF
KHOU 250520Z 2506/2606 20004KT P6SM FEW040
     FM251500 23005KT P6SM FEW030
     FM252000 17008KT P6SM SCT050
     FM260200 18004KT P6SM SCT250=



000
FTUS44 KHGX 250520
TAFCLL
TAF
KCLL 250520Z 2506/2606 10005KT P6SM SKC
     FM251500 20005KT P6SM FEW030
     FM252100 17008KT P6SM SCT050
     FM260200 18004KT P6SM SCT250=



000
FTUS44 KHGX 250520
TAFGLS
TAF
KGLS 250520Z 2506/2606 21004KT P6SM SKC
     FM251100 24007KT P6SM VCSH SCT030
     FM251700 18007KT P6SM FEW250
     FM260400 21004KT P6SM SCT250=



000
FTUS44 KHGX 250520
TAFIAH
TAF
KIAH 250520Z 2506/2612 20005KT P6SM FEW050
     FM251500 22005KT P6SM FEW030
     FM252100 17008KT P6SM SCT050
     FM260200 18004KT P6SM SCT250=



000
FTUS44 KHGX 250257 AAA
TAFIAH
TAF AMD
KIAH 250257Z 2503/2606 19004KT P6SM BKN045
     FM251500 22005KT P6SM FEW030
     FM252100 17008KT P6SM SCT050
     FM260200 18004KT P6SM SCT250=



000
FTUS44 KHGX 250257 AAA
TAFIAH
TAF AMD
KIAH 250257Z 2503/2606 19004KT P6SM BKN045
     FM251500 22005KT P6SM FEW030
     FM252100 17008KT P6SM SCT050
     FM260200 18004KT P6SM SCT250=



000
FTUS44 KHGX 250257 AAA
TAFHOU
TAF AMD
KHOU 250257Z 2503/2524 20005KT P6SM FEW040 SCT250
     FM251500 23005KT P6SM FEW030
     FM252000 17008KT P6SM SCT050=



000
FTUS44 KHGX 242327
TAFCXO
TAF
KCXO 242327Z 2500/2524 00000KT P6SM BKN045
     FM250100 VRB02KT P6SM SCT250
     FM251500 20005KT P6SM FEW030
     FM252100 17008KT P6SM SCT050=



000
FTUS44 KHGX 242327
TAFCLL
TAF
KCLL 242327Z 2500/2524 04006KT P6SM SKC
     FM250100 VRB03KT P6SM SCT250
     FM251500 20005KT P6SM FEW030
     FM252100 17008KT P6SM SCT050=



000
FTUS44 KHGX 242327
TAFHOU
TAF
KHOU 242327Z 2500/2524 23005KT P6SM FEW050 SCT250
     FM250100 VRB04KT P6SM SCT250
     FM251500 23005KT P6SM FEW030
     FM252000 17008KT P6SM SCT050=



000
FTUS44 KHGX 242327
TAFSGR
TAF
KSGR 242327Z 2500/2524 VRB03KT P6SM SKC
     FM250100 VRB04KT P6SM SCT250
     FM251500 22005KT P6SM FEW030
     FM252000 17008KT P6SM SCT050=



000
FTUS44 KHGX 242327
TAFGLS
TAF
KGLS 242327Z 2500/2524 00000KT P6SM SKC
     FM250100 19007KT P6SM SCT250
     FM251100 24007KT P6SM VCSH SCT030
     FM251700 18007KT P6SM FEW250=



000
FTUS44 KHGX 242327
TAFUTS
TAF
KUTS 242327Z 2500/2524 32004KT P6SM SKC
     FM250100 VRB02KT P6SM SCT250
     FM251500 20005KT P6SM FEW030
     FM252100 17008KT P6SM SCT050=



000
FTUS44 KHGX 242327
TAFLBX
TAF
KLBX 242327Z 2500/2524 13004KT P6SM SKC
     FM250200 00000KT P6SM SCT250
     FM251500 22005KT P6SM SCT030
     FM251800 17008KT P6SM SCT050=



000
FTUS44 KHGX 242327
TAFIAH
TAF
KIAH 242327Z 2500/2606 15004KT P6SM FEW025 SCT250
     FM250100 VRB04KT P6SM SCT250
     FM251500 22005KT P6SM FEW030
     FM252100 17008KT P6SM SCT050
     FM260200 18004KT P6SM SCT250=



000
FTUS44 KHGX 242327
TAFLBX
TAF
KLBX 242327Z 2500/2524 13004KT P6SM SKC
     FM250200 00000KT P6SM SCT250
     FM251500 22005KT P6SM SCT030
     FM251800 17008KT P6SM SCT050=



000
FTUS44 KHGX 242327
TAFGLS
TAF
KGLS 242327Z 2500/2524 00000KT P6SM SKC
     FM250100 19007KT P6SM SCT250
     FM251100 24007KT P6SM VCSH SCT030
     FM251700 18007KT P6SM FEW250=



000
FTUS44 KHGX 242327
TAFUTS
TAF
KUTS 242327Z 2500/2524 32004KT P6SM SKC
     FM250100 VRB02KT P6SM SCT250
     FM251500 20005KT P6SM FEW030
     FM252100 17008KT P6SM SCT050=



000
FTUS44 KHGX 242327
TAFIAH
TAF
KIAH 242327Z 2500/2606 15004KT P6SM FEW025 SCT250
     FM250100 VRB04KT P6SM SCT250
     FM251500 22005KT P6SM FEW030
     FM252100 17008KT P6SM SCT050
     FM260200 18004KT P6SM SCT250=



000
FTUS44 KHGX 242327
TAFCXO
TAF
KCXO 242327Z 2500/2524 00000KT P6SM BKN045
     FM250100 VRB02KT P6SM SCT250
     FM251500 20005KT P6SM FEW030
     FM252100 17008KT P6SM SCT050=



000
FTUS44 KHGX 242327
TAFHOU
TAF
KHOU 242327Z 2500/2524 23005KT P6SM FEW050 SCT250
     FM250100 VRB04KT P6SM SCT250
     FM251500 23005KT P6SM FEW030
     FM252000 17008KT P6SM SCT050=



000
FTUS44 KHGX 242327
TAFCLL
TAF
KCLL 242327Z 2500/2524 04006KT P6SM SKC
     FM250100 VRB03KT P6SM SCT250
     FM251500 20005KT P6SM FEW030
     FM252100 17008KT P6SM SCT050=



000
FTUS44 KHGX 242327
TAFSGR
TAF
KSGR 242327Z 2500/2524 VRB03KT P6SM SKC
     FM250100 VRB04KT P6SM SCT250
     FM251500 22005KT P6SM FEW030
     FM252000 17008KT P6SM SCT050=



000
FTUS44 KHGX 242106 AAB
TAFHOU
TAF AMD
KHOU 242106Z 2421/2518 20011KT P6SM VCTS SCT035 BKN045CB
      TEMPO 2421/2422 5SM TSRA BR
     FM250100 VRB04KT P6SM SCT250
     FM251500 23005KT P6SM FEW030=



000
FTUS44 KHGX 242106 AAB
TAFHOU
TAF AMD
KHOU 242106Z 2421/2518 20011KT P6SM VCTS SCT035 BKN045CB
      TEMPO 2421/2422 5SM TSRA BR
     FM250100 VRB04KT P6SM SCT250
     FM251500 23005KT P6SM FEW030=



000
FTUS44 KHGX 242105 AAA
TAFIAH
TAF AMD
KIAH 242105Z 2421/2524 12006KT P6SM VCTS SCT035CB
      TEMPO 2421/2423 VRB15KT 5SM TSRA BR BKN025CB
     FM250100 VRB04KT P6SM SCT250
     FM251500 22005KT P6SM FEW030
     FM252100 17007KT P6SM SCT050=



000
FTUS44 KHGX 242105 AAA
TAFIAH
TAF AMD
KIAH 242105Z 2421/2524 12006KT P6SM VCTS SCT035CB
      TEMPO 2421/2423 VRB15KT 5SM TSRA BR BKN025CB
     FM250100 VRB04KT P6SM SCT250
     FM251500 22005KT P6SM FEW030
     FM252100 17007KT P6SM SCT050=



000
FTUS44 KHGX 241958 AAA
TAFSGR
TAF AMD
KSGR 241958Z 2420/2518 31007KT P6SM VCTS SCT040CB
      TEMPO 2421/2423 VRB15G25KT 3SM TSRA BKN025CB
     FM250100 VRB04KT P6SM SCT250
     FM251500 22005KT P6SM FEW030=



000
FTUS44 KHGX 241958 AAA
TAFSGR
TAF AMD
KSGR 241958Z 2420/2518 31007KT P6SM VCTS SCT040CB
      TEMPO 2421/2423 VRB15G25KT 3SM TSRA BKN025CB
     FM250100 VRB04KT P6SM SCT250
     FM251500 22005KT P6SM FEW030=



000
FTUS44 KHGX 241929 AAA
TAFHOU
TAF AMD
KHOU 241929Z 2419/2518 33005KT P6SM VCTS SCT040CB
      TEMPO 2419/2423 VRB15G25KT 3SM TSRA BR BKN025CB
     FM250100 VRB04KT P6SM SCT250
     FM251500 23005KT P6SM FEW030=



000
FTUS44 KHGX 241929 AAA
TAFHOU
TAF AMD
KHOU 241929Z 2419/2518 33005KT P6SM VCTS SCT040CB
      TEMPO 2419/2423 VRB15G25KT 3SM TSRA BR BKN025CB
     FM250100 VRB04KT P6SM SCT250
     FM251500 23005KT P6SM FEW030=



000
FTUS44 KHGX 241815 AAA
TAFLBX
TAF AMD
KLBX 241815Z 2418/2518 33006KT P6SM VCTS SCT035 SCT045CB
      TEMPO 2418/2420 VRB15KT 3SM TSRA BR BKN025CB
     FM242200 18007KT P6SM SCT250
     FM250200 00000KT P6SM SCT250
     FM251500 22005KT P6SM SCT030=



000
FTUS44 KHGX 241815 AAA
TAFLBX
TAF AMD
KLBX 241815Z 2418/2518 33006KT P6SM VCTS SCT035 SCT045CB
      TEMPO 2418/2420 VRB15KT 3SM TSRA BR BKN025CB
     FM242200 18007KT P6SM SCT250
     FM250200 00000KT P6SM SCT250
     FM251500 22005KT P6SM SCT030=



000
FTUS44 KHGX 241720
TAFGLS
TAF
KGLS 241720Z 2418/2518 04007KT P6SM SCT030
     FM242100 17008KT P6SM VCTS SCT035CB
     FM250100 19007KT P6SM SCT250
     FM251100 24007KT P6SM VCSH SCT030=



000
FTUS44 KHGX 241720
TAFCXO
TAF
KCXO 241720Z 2418/2518 31006KT P6SM SCT040
     FM250100 VRB02KT P6SM SCT250
     FM251500 20005KT P6SM FEW030=



000
FTUS44 KHGX 241720
TAFUTS
TAF
KUTS 241720Z 2418/2518 VRB04KT P6SM SCT040
     FM250100 VRB02KT P6SM SCT250
     FM251500 20005KT P6SM FEW030=



000
FTUS44 KHGX 241720
TAFCLL
TAF
KCLL 241720Z 2418/2518 07005KT P6SM SCT040
     FM250100 VRB03KT P6SM SCT250
     FM251500 20005KT P6SM FEW030=



000
FTUS44 KHGX 241720
TAFIAH
TAF
KIAH 241720Z 2418/2524 31005KT P6SM SCT035
     FM242100 12007KT P6SM VCTS SCT050CB
     FM250100 VRB04KT P6SM SCT250
     FM251500 22005KT P6SM FEW030
     FM252100 17007KT P6SM SCT050=



000
FTUS44 KHGX 241720
TAFSGR
TAF
KSGR 241720Z 2418/2518 31007KT P6SM SCT040
     FM242100 15008KT P6SM VCTS SCT050CB
     FM250100 VRB04KT P6SM SCT250
     FM251500 22005KT P6SM FEW030=



000
FTUS44 KHGX 241720
TAFHOU
TAF
KHOU 241720Z 2418/2518 29005KT P6SM SCT035
     FM242100 14008KT P6SM VCTS SCT050CB
     FM250100 VRB04KT P6SM SCT250
     FM251500 23005KT P6SM FEW030=



000
FTUS44 KHGX 241720
TAFLBX
TAF
KLBX 241720Z 2418/2518 31004KT P6SM VCTS SCT030CB
     FM242200 18007KT P6SM SCT250
     FM250200 00000KT P6SM SCT250
     FM251500 22005KT P6SM SCT030=



000
FTUS44 KHGX 241632 AAB
TAFHOU
TAF AMD
KHOU 241632Z 2417/2512 09006KT P6SM VCSH SCT025
      TEMPO 2417/2418 5SM TSRA BR BKN025CB
     FM242100 14008KT P6SM VCTS SCT050CB
     FM250100 VRB04KT P6SM BKN250=



000
FTUS44 KHGX 241632 AAB
TAFHOU
TAF AMD
KHOU 241632Z 2417/2512 09006KT P6SM VCSH SCT025
      TEMPO 2417/2418 5SM TSRA BR BKN025CB
     FM242100 14008KT P6SM VCTS SCT050CB
     FM250100 VRB04KT P6SM BKN250=



000
FTUS44 KHGX 241516 AAA
TAFSGR
TAF AMD
KSGR 241516Z 2415/2512 09006KT P6SM VCSH BKN040
     FM242200 15008KT P6SM VCTS SCT050CB SCT250
     FM250100 VRB04KT P6SM BKN250=



000
FTUS44 KHGX 241516 AAA
TAFSGR
TAF AMD
KSGR 241516Z 2415/2512 09006KT P6SM VCSH BKN040
     FM242200 15008KT P6SM VCTS SCT050CB SCT250
     FM250100 VRB04KT P6SM BKN250=



000
FTUS44 KHGX 241500 AAA
TAFHOU
TAF AMD
KHOU 241500Z 2415/2512 09006KT P6SM SCT025
     FM242100 14008KT P6SM VCTS SCT050CB
     FM250100 VRB04KT P6SM BKN250=



000
FTUS44 KHGX 241500 AAA
TAFHOU
TAF AMD
KHOU 241500Z 2415/2512 09006KT P6SM SCT025
     FM242100 14008KT P6SM VCTS SCT050CB
     FM250100 VRB04KT P6SM BKN250=



000
FTUS44 KHGX 241459 AAA
TAFIAH
TAF AMD
KIAH 241459Z 2415/2518 09006KT P6SM SCT045
     FM242100 12008KT P6SM VCTS SCT050CB SCT250
     FM250100 VRB04KT P6SM BKN250=



000
FTUS44 KHGX 241459 AAA
TAFIAH
TAF AMD
KIAH 241459Z 2415/2518 09006KT P6SM SCT045
     FM242100 12008KT P6SM VCTS SCT050CB SCT250
     FM250100 VRB04KT P6SM BKN250=



000
FTUS44 KHGX 241407 AAA
TAFLBX
TAF AMD
KLBX 241407Z 2414/2512 VRB05KT P6SM SCT023 SCT028 BKN035
      TEMPO 2414/2416 SHRA BKN023 BKN028
     FM241900 VRB04KT P6SM VCTS SCT040CB
     FM242200 18007KT P6SM SCT250
     FM250200 00000KT P6SM SCT250=



000
FTUS44 KHGX 241407 AAA
TAFLBX
TAF AMD
KLBX 241407Z 2414/2512 VRB05KT P6SM SCT023 SCT028 BKN035
      TEMPO 2414/2416 SHRA BKN023 BKN028
     FM241900 VRB04KT P6SM VCTS SCT040CB
     FM242200 18007KT P6SM SCT250
     FM250200 00000KT P6SM SCT250=



000
FTUS44 KHGX 241123
TAFUTS
TAF
KUTS 241123Z 2412/2512 00000KT P6SM BKN080
     FM241400 VRB03KT P6SM SCT040 SCT250=



000
FTUS44 KHGX 241123
TAFLBX
TAF
KLBX 241123Z 2412/2512 00000KT P6SM FEW100
     FM241900 VRB04KT P6SM VCTS SCT040CB
     FM242200 18007KT P6SM SCT250
     FM250200 00000KT P6SM SCT250=



000
FTUS44 KHGX 241123
TAFSGR
TAF
KSGR 241123Z 2412/2512 VRB03KT P6SM FEW020 BKN250
     FM241500 09006KT P6SM SCT040 SCT250
     FM242200 15008KT P6SM VCTS SCT050CB SCT250
     FM250100 VRB04KT P6SM BKN250=



000
FTUS44 KHGX 241123
TAFCXO
TAF
KCXO 241123Z 2412/2512 00000KT P6SM FEW050
     FM241400 VRB03KT P6SM SCT040 SCT250=



000
FTUS44 KHGX 241123
TAFIAH
TAF
KIAH 241123Z 2412/2518 VRB03KT P6SM SCT060 BKN250
     FM241500 09006KT P6SM SCT040 SCT250
     FM242100 12008KT P6SM VCTS SCT050CB SCT250
     FM250100 VRB04KT P6SM BKN250=



000
FTUS44 KHGX 241123
TAFGLS
TAF
KGLS 241123Z 2412/2512 VRB04KT P6SM BKN090
     FM241400 28006KT P6SM SCT100
     FM241800 17008KT P6SM SCT250=



000
FTUS44 KHGX 241123
TAFHOU
TAF
KHOU 241123Z 2412/2512 VRB03KT P6SM FEW020 BKN250
     FM241500 09006KT P6SM SCT040 SCT250
     FM242100 14008KT P6SM VCTS SCT050CB SCT250
     FM250100 VRB04KT P6SM BKN250=



000
FTUS44 KHGX 241123
TAFGLS
TAF
KGLS 241123Z 2412/2512 VRB04KT P6SM BKN090
     FM241400 28006KT P6SM SCT100
     FM241800 17008KT P6SM SCT250=



000
FTUS44 KHGX 241123
TAFCLL
TAF
KCLL 241123Z 2412/2512 00000KT P6SM SCT070 OVC110
     FM241500 VRB04KT P6SM SCT040 SCT250=



000
FTUS44 KHGX 241123
TAFHOU
TAF
KHOU 241123Z 2412/2512 VRB03KT P6SM FEW020 BKN250
     FM241500 09006KT P6SM SCT040 SCT250
     FM242100 14008KT P6SM VCTS SCT050CB SCT250
     FM250100 VRB04KT P6SM BKN250=



000
FTUS44 KHGX 241123
TAFIAH
TAF
KIAH 241123Z 2412/2518 VRB03KT P6SM SCT060 BKN250
     FM241500 09006KT P6SM SCT040 SCT250
     FM242100 12008KT P6SM VCTS SCT050CB SCT250
     FM250100 VRB04KT P6SM BKN250=



000
FTUS44 KHGX 241123
TAFUTS
TAF
KUTS 241123Z 2412/2512 00000KT P6SM BKN080
     FM241400 VRB03KT P6SM SCT040 SCT250=



000
FTUS44 KHGX 241123
TAFLBX
TAF
KLBX 241123Z 2412/2512 00000KT P6SM FEW100
     FM241900 VRB04KT P6SM VCTS SCT040CB
     FM242200 18007KT P6SM SCT250
     FM250200 00000KT P6SM SCT250=



000
FTUS44 KHGX 241123
TAFCXO
TAF
KCXO 241123Z 2412/2512 00000KT P6SM FEW050
     FM241400 VRB03KT P6SM SCT040 SCT250=



000
FTUS44 KHGX 241123
TAFSGR
TAF
KSGR 241123Z 2412/2512 VRB03KT P6SM FEW020 BKN250
     FM241500 09006KT P6SM SCT040 SCT250
     FM242200 15008KT P6SM VCTS SCT050CB SCT250
     FM250100 VRB04KT P6SM BKN250=



000
FTUS44 KHGX 241123
TAFCLL
TAF
KCLL 241123Z 2412/2512 00000KT P6SM SCT070 OVC110
     FM241500 VRB04KT P6SM SCT040 SCT250=



000
FTUS44 KHGX 241005 AAA
TAFLBX
TAF AMD
KLBX 241005Z 2410/2506 34003KT P6SM SKC
     FM241500 24004KT P6SM VCTS SCT020 BKN035CB
     FM242100 19004KT P6SM SKC=



000
FTUS44 KHGX 241005 AAA
TAFLBX
TAF AMD
KLBX 241005Z 2410/2506 34003KT P6SM SKC
     FM241500 24004KT P6SM VCTS SCT020 BKN035CB
     FM242100 19004KT P6SM SKC=



000
FTUS44 KHGX 240907 AAA
TAFHOU
TAF AMD
KHOU 240907Z 2409/2506 24003KT P6SM FEW150 SCT250
     FM241500 VRB05KT P6SM VCSH SCT030 PROB30 2418/2422 TSRA
      BKN050CB
     FM250000 17006KT P6SM SCT050 SCT250=



000
FTUS44 KHGX 240907 AAA
TAFHOU
TAF AMD
KHOU 240907Z 2409/2506 24003KT P6SM FEW150 SCT250
     FM241500 VRB05KT P6SM VCSH SCT030 PROB30 2418/2422 TSRA
      BKN050CB
     FM250000 17006KT P6SM SCT050 SCT250=



000
FTUS44 KHGX 240907 AAA
TAFIAH
TAF AMD
KIAH 240907Z 2409/2512 00000KT P6SM SCT120 BKN250
     FM241600 VRB04KT P6SM VCSH SCT030 PROB30 2418/2422 TSRA
      BKN050CB
     FM250000 17006KT P6SM SCT050 SCT250=



000
FTUS44 KHGX 240907 AAA
TAFIAH
TAF AMD
KIAH 240907Z 2409/2512 00000KT P6SM SCT120 BKN250
     FM241600 VRB04KT P6SM VCSH SCT030 PROB30 2418/2422 TSRA
      BKN050CB
     FM250000 17006KT P6SM SCT050 SCT250=



000
FTUS44 KHGX 240906 AAA
TAFCXO
TAF AMD
KCXO 240906Z 2409/2506 00000KT P6SM SCT100
     FM241400 VRB04KT P6SM SCT030
     FM242100 VRB04KT P6SM VCTS SCT040CB
     FM250000 VRB03KT P6SM SKC=



000
FTUS44 KHGX 240906 AAA
TAFCXO
TAF AMD
KCXO 240906Z 2409/2506 00000KT P6SM SCT100
     FM241400 VRB04KT P6SM SCT030
     FM242100 VRB04KT P6SM VCTS SCT040CB
     FM250000 VRB03KT P6SM SKC=



000
FTUS44 KHGX 240905 AAA
TAFCLL
TAF AMD
KCLL 240905Z 2409/2506 10004KT P6SM VCSH SCT030 SCT100
     FM241100 VRB03KT P6SM FEW030 SCT120
     FM241500 VRB04KT P6SM SCT030
     FM250000 11005KT P6SM SKC=



000
FTUS44 KHGX 240905 AAA
TAFCLL
TAF AMD
KCLL 240905Z 2409/2506 10004KT P6SM VCSH SCT030 SCT100
     FM241100 VRB03KT P6SM FEW030 SCT120
     FM241500 VRB04KT P6SM SCT030
     FM250000 11005KT P6SM SKC=



000
FTUS44 KHGX 240905 AAA
TAFUTS
TAF AMD
KUTS 240905Z 2409/2506 VRB03KT P6SM BKN100
     FM241400 VRB03KT P6SM SCT030 SCT045
     FM250000 00000KT P6SM SKC=



000
FTUS44 KHGX 240529
TAFCLL
TAF
KCLL 240529Z 2406/2506 04010KT P6SM FEW035 FEW120
     FM241500 VRB04KT P6SM SCT030
     FM250000 11005KT P6SM SKC=



000
FTUS44 KHGX 240529
TAFGLS
TAF
KGLS 240529Z 2406/2506 00000KT P6SM VCTS SCT050CB
      TEMPO 2406/2407 03015G25KT 4SM TSRA BKN030CB
     FM240800 07007KT P6SM SCT030 SCT250
     FM241800 VRB03KT P6SM SCT060 SCT250=



000
FTUS44 KHGX 240529
TAFSGR
TAF
KSGR 240529Z 2406/2506 03003KT P6SM VCTS BKN045CB BKN060
     FM240800 09005KT 6SM BR SCT015 BKN035
     FM241500 VRB05KT P6SM VCSH SCT030 PROB30 2418/2422 TSRA
      BKN050CB
     FM250000 17006KT P6SM SCT050 SCT250=



000
FTUS44 KHGX 240529
TAFIAH
TAF
KIAH 240529Z 2406/2512 VRB04KT P6SM SCT050 BKN060 BKN070
     FM241600 VRB04KT P6SM VCSH SCT030 PROB30 2418/2422 TSRA
      BKN050CB
     FM250000 17006KT P6SM SCT050 SCT250=



000
FTUS44 KHGX 240529
TAFUTS
TAF
KUTS 240529Z 2406/2506 VRB04KT P6SM SKC
     FM240900 VRB02KT 4SM BR FEW040
     FM241400 VRB03KT P6SM SCT030 SCT045
     FM250000 00000KT P6SM SKC=



000
FTUS44 KHGX 240529
TAFHOU
TAF
KHOU 240529Z 2406/2506 09006KT P6SM VCTS SCT045CB SCT050 BKN250
     FM240700 VRB04KT P6SM FEW020 BKN035
     FM241500 VRB05KT P6SM VCSH SCT030 PROB30 2418/2422 TSRA
      BKN050CB
     FM250000 17006KT P6SM SCT050 SCT250=



000
FTUS44 KHGX 240529
TAFLBX
TAF
KLBX 240529Z 2406/2506 00000KT P6SM VCTS SCT050CB
     FM241000 00000KT 5SM BR SCT250
     FM241500 24004KT P6SM VCTS SCT020 BKN035CB PROB30 2416/2420 4SM
      TSRA
     FM242100 19004KT P6SM SKC=



000
FTUS44 KHGX 240529
TAFCXO
TAF
KCXO 240529Z 2406/2506 00000KT P6SM FEW045 SCT060 BKN250
     FM240900 00000KT 4SM BR SKC
     FM241400 VRB04KT P6SM SCT030
     FM242100 VRB04KT P6SM VCTS SCT040CB
     FM250000 VRB03KT P6SM SKC=



000
FTUS44 KHGX 240529
TAFSGR
TAF
KSGR 240529Z 2406/2506 03003KT P6SM VCTS BKN045CB BKN060
     FM240800 09005KT 6SM BR SCT015 BKN035
     FM241500 VRB05KT P6SM VCSH SCT030 PROB30 2418/2422 TSRA
      BKN050CB
     FM250000 17006KT P6SM SCT050 SCT250=



000
FTUS44 KHGX 240529
TAFHOU
TAF
KHOU 240529Z 2406/2506 09006KT P6SM VCTS SCT045CB SCT050 BKN250
     FM240700 VRB04KT P6SM FEW020 BKN035
     FM241500 VRB05KT P6SM VCSH SCT030 PROB30 2418/2422 TSRA
      BKN050CB
     FM250000 17006KT P6SM SCT050 SCT250=



000
FTUS44 KHGX 240529
TAFIAH
TAF
KIAH 240529Z 2406/2512 VRB04KT P6SM SCT050 BKN060 BKN070
     FM241600 VRB04KT P6SM VCSH SCT030 PROB30 2418/2422 TSRA
      BKN050CB
     FM250000 17006KT P6SM SCT050 SCT250=



000
FTUS44 KHGX 240529
TAFCLL
TAF
KCLL 240529Z 2406/2506 04010KT P6SM FEW035 FEW120
     FM241500 VRB04KT P6SM SCT030
     FM250000 11005KT P6SM SKC=



000
FTUS44 KHGX 240529
TAFCXO
TAF
KCXO 240529Z 2406/2506 00000KT P6SM FEW045 SCT060 BKN250
     FM240900 00000KT 4SM BR SKC
     FM241400 VRB04KT P6SM SCT030
     FM242100 VRB04KT P6SM VCTS SCT040CB
     FM250000 VRB03KT P6SM SKC=



000
FTUS44 KHGX 240529
TAFUTS
TAF
KUTS 240529Z 2406/2506 VRB04KT P6SM SKC
     FM240900 VRB02KT 4SM BR FEW040
     FM241400 VRB03KT P6SM SCT030 SCT045
     FM250000 00000KT P6SM SKC=



000
FTUS44 KHGX 240529
TAFLBX
TAF
KLBX 240529Z 2406/2506 00000KT P6SM VCTS SCT050CB
     FM241000 00000KT 5SM BR SCT250
     FM241500 24004KT P6SM VCTS SCT020 BKN035CB PROB30 2416/2420 4SM
      TSRA
     FM242100 19004KT P6SM SKC=



000
FTUS44 KHGX 240529
TAFGLS
TAF
KGLS 240529Z 2406/2506 00000KT P6SM VCTS SCT050CB
      TEMPO 2406/2407 03015G25KT 4SM TSRA BKN030CB
     FM240800 07007KT P6SM SCT030 SCT250
     FM241800 VRB03KT P6SM SCT060 SCT250=



000
FTUS44 KHGX 240430 AAC
TAFHOU
TAF AMD
KHOU 240430Z 2405/2424 21003KT P6SM VCTS FEW045CB SCT050 BKN250
      TEMPO 2405/2407 4SM TSRA BKN040CB
     FM240700 00000KT P6SM FEW045 SCT060 BKN250
     FM241500 VRB05KT P6SM VCSH SCT030 PROB30 2418/2422 TSRA
      BKN050CB=



000
FTUS44 KHGX 240419 AAA
TAFSGR
TAF AMD
KSGR 240419Z 2404/2424 21004KT P6SM VCTS BKN045CB
     FM240800 00000KT 6SM BR SCT015 BKN035
     FM241500 VRB05KT P6SM VCSH SCT030 PROB30 2418/2422 TSRA
      BKN050CB=



000
FTUS44 KHGX 240419 AAA
TAFSGR
TAF AMD
KSGR 240419Z 2404/2424 21004KT P6SM VCTS BKN045CB
     FM240800 00000KT 6SM BR SCT015 BKN035
     FM241500 VRB05KT P6SM VCSH SCT030 PROB30 2418/2422 TSRA
      BKN050CB=



000
FTUS44 KHGX 240405 AAB
TAFHOU
TAF AMD
KHOU 240405Z 2404/2424 21003KT P6SM VCTS FEW045CB SCT050 BKN250
     FM240600 00000KT P6SM FEW045 SCT060 BKN250
     FM241500 VRB05KT P6SM VCSH SCT030 PROB30 2418/2422 TSRA
      BKN050CB=



000
FTUS44 KHGX 240403 AAC
TAFCLL
TAF AMD
KCLL 240403Z 2404/2424 04010KT P6SM FEW035 OVC250
     FM240600 00000KT P6SM FEW040 OVC250
     FM241500 VRB04KT P6SM SCT030=



000
FTUS44 KHGX 240403 AAC
TAFCLL
TAF AMD
KCLL 240403Z 2404/2424 04010KT P6SM FEW035 OVC250
     FM240600 00000KT P6SM FEW040 OVC250
     FM241500 VRB04KT P6SM SCT030=



000
FTUS44 KHGX 240402 AAB
TAFIAH
TAF AMD
KIAH 240402Z 2404/2506 05004KT P6SM VCTS BKN050CB BKN250
      TEMPO 2404/2406 VRB25KT 4SM TSRA
     FM240600 00000KT P6SM SCT035 SCT250
     FM241600 VRB04KT P6SM SCT030
     FM242100 VRB04KT P6SM VCTS SCT040CB=



000
FTUS44 KHGX 240402 AAB
TAFIAH
TAF AMD
KIAH 240402Z 2404/2506 05004KT P6SM VCTS BKN050CB BKN250
      TEMPO 2404/2406 VRB25KT 4SM TSRA
     FM240600 00000KT P6SM SCT035 SCT250
     FM241600 VRB04KT P6SM SCT030
     FM242100 VRB04KT P6SM VCTS SCT040CB=



000
FTUS44 KHGX 240329 AAC
TAFCXO
TAF AMD
KCXO 240329Z 2403/2424 01005KT P6SM VCTS SCT050CB
     FM240600 00000KT P6SM SCT040
     FM240900 00000KT 4SM BR SKC
     FM241400 VRB04KT P6SM SCT030=



000
FTUS44 KHGX 240329 AAC
TAFCXO
TAF AMD
KCXO 240329Z 2403/2424 01005KT P6SM VCTS SCT050CB
     FM240600 00000KT P6SM SCT040
     FM240900 00000KT 4SM BR SKC
     FM241400 VRB04KT P6SM SCT030=



000
FTUS44 KHGX 240316 AAB
TAFUTS
TAF AMD
KUTS 240316Z 2403/2424 VRB04KT P6SM FEW060 FEW120
     FM240900 VRB02KT 4SM BR FEW040
     FM241400 VRB03KT P6SM SCT030=



000
FTUS44 KHGX 240316 AAB
TAFCLL
TAF AMD
KCLL 240316Z 2403/2424 04010KT P6SM FEW040 OVC250
     FM241500 VRB04KT P6SM SCT030=



000
FTUS44 KHGX 240316 AAB
TAFCLL
TAF AMD
KCLL 240316Z 2403/2424 04010KT P6SM FEW040 OVC250
     FM241500 VRB04KT P6SM SCT030=



000
FTUS44 KHGX 240315 AAB
TAFCXO
TAF AMD
KCXO 240315Z 2403/2424 01005KT P6SM VCSH FEW060
     FM240600 00000KT P6SM SCT040
     FM240900 00000KT 4SM BR SKC
     FM241400 VRB04KT P6SM SCT030=



000
FTUS44 KHGX 240315 AAB
TAFCXO
TAF AMD
KCXO 240315Z 2403/2424 01005KT P6SM VCSH FEW060
     FM240600 00000KT P6SM SCT040
     FM240900 00000KT 4SM BR SKC
     FM241400 VRB04KT P6SM SCT030=



000
FTUS44 KHGX 240314 AAA
TAFHOU
TAF AMD
KHOU 240314Z 2403/2424 00000KT P6SM FEW045 SCT060 BKN250
     FM241500 VRB05KT P6SM VCSH SCT030 PROB30 2418/2422 TSRA
      BKN050CB=



000
FTUS44 KHGX 240314 AAA
TAFHOU
TAF AMD
KHOU 240314Z 2403/2424 00000KT P6SM FEW045 SCT060 BKN250
     FM241500 VRB05KT P6SM VCSH SCT030 PROB30 2418/2422 TSRA
      BKN050CB=



000
FTUS44 KHGX 240309 AAA
TAFIAH
TAF AMD
KIAH 240309Z 2403/2506 05004KT P6SM VCTS BKN050CB BKN250
     FM240600 00000KT P6SM SCT035 SCT250
     FM241600 VRB04KT P6SM SCT030
     FM242100 VRB04KT P6SM VCTS SCT040CB=



000
FTUS44 KHGX 240309 AAA
TAFIAH
TAF AMD
KIAH 240309Z 2403/2506 05004KT P6SM VCTS BKN050CB BKN250
     FM240600 00000KT P6SM SCT035 SCT250
     FM241600 VRB04KT P6SM SCT030
     FM242100 VRB04KT P6SM VCTS SCT040CB=



000
FTUS44 KHGX 240201 AAA
TAFCXO
TAF AMD
KCXO 240201Z 2402/2424 00000KT P6SM FEW040 OVC250
     FM240600 00000KT P6SM VCTS BKN040CB
     FM240900 00000KT 4SM BR SKC
     FM241400 VRB04KT P6SM SCT030=



000
FTUS44 KHGX 240201 AAA
TAFCXO
TAF AMD
KCXO 240201Z 2402/2424 00000KT P6SM FEW040 OVC250
     FM240600 00000KT P6SM VCTS BKN040CB
     FM240900 00000KT 4SM BR SKC
     FM241400 VRB04KT P6SM SCT030=



000
FTUS44 KHGX 240159 AAA
TAFCLL
TAF AMD
KCLL 240159Z 2402/2424 04010KT P6SM FEW040 OVC250
      TEMPO 2406/2408 6SM TSRA BKN035CB
     FM241500 VRB04KT P6SM SCT030=



000
FTUS44 KHGX 240159 AAA
TAFCLL
TAF AMD
KCLL 240159Z 2402/2424 04010KT P6SM FEW040 OVC250
      TEMPO 2406/2408 6SM TSRA BKN035CB
     FM241500 VRB04KT P6SM SCT030=



000
FTUS44 KHGX 240157 AAA
TAFUTS
TAF AMD
KUTS 240157Z 2402/2424 00000KT P6SM OVC250
     FM240400 00000KT P6SM VCTS BKN040CB
      TEMPO 2404/2406 4SM TSRA
     FM240900 VRB02KT 4SM BR FEW040
     FM241400 VRB03KT P6SM SCT030=



000
FTUS44 KHGX 240157 AAA
TAFUTS
TAF AMD
KUTS 240157Z 2402/2424 00000KT P6SM OVC250
     FM240400 00000KT P6SM VCTS BKN040CB
      TEMPO 2404/2406 4SM TSRA
     FM240900 VRB02KT 4SM BR FEW040
     FM241400 VRB03KT P6SM SCT030=



000
FTUS44 KHGX 232358 CCA
TAFIAH
TAF COR
KIAH 232358Z 2400/2506 00000KT P6SM SCT060 SCT250
     FM240300 VRB03KT P6SM SCT250
     FM241600 VRB04KT P6SM SCT030
     FM242100 VRB04KT P6SM VCTS SCT040CB=



000
FTUS44 KHGX 232342
TAFCXO
TAF
KCXO 232342Z 2400/2424 12004KT P6SM SCT040
      TEMPO 2406/2408 36030KT 6SM TSRA BKN040CB
     FM240900 00000KT 4SM BR SKC
     FM241400 VRB04KT P6SM SCT030=



000
FTUS44 KHGX 232342
TAFHOU
TAF
KHOU 232342Z 2400/2424 20007KT P6SM FEW045
     FM240100 11009KT P6SM FEW040
     FM240300 VRB03KT P6SM SCT250
     FM241500 27004KT P6SM VCSH SCT030=



000
FTUS44 KHGX 232342
TAFIAH
TAF
KIAH 232342Z 2400/2506 00000KT P6SM SCT060
     FM240100 11009KT P6SM FEW040
     FM240300 VRB03KT P6SM SCT250
     FM241600 VRB04KT P6SM SCT030
     FM242100 VRB04KT P6SM VCTS SCT040CB=



000
FTUS44 KHGX 232342
TAFSGR
TAF
KSGR 232342Z 2400/2424 21004KT P6SM SKC
     FM240300 VRB03KT P6SM SCT250
     FM241600 27004KT P6SM SCT030=



000
FTUS44 KHGX 232342
TAFUTS
TAF
KUTS 232342Z 2400/2424 27003KT P6SM SCT050
     FM240100 00000KT P6SM SKC
      TEMPO 2405/2407 36030KT 6SM TSRA BKN040CB
     FM240900 VRB02KT 4SM BR FEW040
     FM241400 VRB03KT P6SM SCT030=



000
FTUS44 KHGX 232342
TAFCLL
TAF
KCLL 232342Z 2400/2424 06005KT P6SM SCT050
     FM240200 VRB03KT P6SM SCT250
      TEMPO 2405/2407 05025KT 6SM TSRA BKN040CB
     FM241500 VRB04KT P6SM SCT030=



000
FTUS44 KHGX 232342
TAFHOU
TAF
KHOU 232342Z 2400/2424 20007KT P6SM FEW045
     FM240100 11009KT P6SM FEW040
     FM240300 VRB03KT P6SM SCT250
     FM241500 27004KT P6SM VCSH SCT030=



000
FTUS44 KHGX 232342
TAFLBX
TAF
KLBX 232342Z 2400/2424 VRB03KT P6SM FEW060
     FM240100 VRB03KT P6SM SCT250
     FM241500 24004KT P6SM VCTS SCT030CB=



000
FTUS44 KHGX 232342
TAFGLS
TAF
KGLS 232342Z 2400/2424 18008KT P6SM FEW035
     FM240300 VRB05KT P6SM FEW030
     FM241200 23005KT P6SM VCTS SCT030CB=



000
FTUS44 KHGX 232342
TAFUTS
TAF
KUTS 232342Z 2400/2424 27003KT P6SM SCT050
     FM240100 00000KT P6SM SKC
      TEMPO 2405/2407 36030KT 6SM TSRA BKN040CB
     FM240900 VRB02KT 4SM BR FEW040
     FM241400 VRB03KT P6SM SCT030=



000
FTUS44 KHGX 232342
TAFSGR
TAF
KSGR 232342Z 2400/2424 21004KT P6SM SKC
     FM240300 VRB03KT P6SM SCT250
     FM241600 27004KT P6SM SCT030=



000
FTUS44 KHGX 232342
TAFCXO
TAF
KCXO 232342Z 2400/2424 12004KT P6SM SCT040
      TEMPO 2406/2408 36030KT 6SM TSRA BKN040CB
     FM240900 00000KT 4SM BR SKC
     FM241400 VRB04KT P6SM SCT030=



000
FTUS44 KHGX 232342
TAFCLL
TAF
KCLL 232342Z 2400/2424 06005KT P6SM SCT050
     FM240200 VRB03KT P6SM SCT250
      TEMPO 2405/2407 05025KT 6SM TSRA BKN040CB
     FM241500 VRB04KT P6SM SCT030=



000
FTUS44 KHGX 232342
TAFIAH
TAF
KIAH 232342Z 2400/2506 00000KT P6SM SCT060
     FM240100 11009KT P6SM FEW040
     FM240300 VRB03KT P6SM SCT250
     FM241600 VRB04KT P6SM SCT030
     FM242100 VRB04KT P6SM VCTS SCT040CB=



000
FTUS44 KHGX 232217 AAC
TAFSGR
TAF AMD
KSGR 232217Z 2322/2418 VRB05KT P6SM SCT040 SCT060
     FM240300 VRB03KT P6SM SCT250
     FM241600 27004KT P6SM SCT030=



000
FTUS44 KHGX 232217 AAC
TAFSGR
TAF AMD
KSGR 232217Z 2322/2418 VRB05KT P6SM SCT040 SCT060
     FM240300 VRB03KT P6SM SCT250
     FM241600 27004KT P6SM SCT030=



000
FTUS44 KHGX 232157 AAB
TAFSGR
TAF AMD
KSGR 232157Z 2322/2418 17013KT P6SM VCTS BKN045CB
     FM240300 VRB03KT P6SM SCT250
     FM241600 27004KT P6SM SCT030=



000
FTUS44 KHGX 232157 AAB
TAFSGR
TAF AMD
KSGR 232157Z 2322/2418 17013KT P6SM VCTS BKN045CB
     FM240300 VRB03KT P6SM SCT250
     FM241600 27004KT P6SM SCT030=



000
FTUS44 KHGX 232057 AAC
TAFHOU
TAF AMD
KHOU 232057Z 2321/2418 12008KT P6SM SCT050
     FM232200 12008KT P6SM VCTS SCT050CB
     FM240100 11009KT P6SM FEW040
     FM240300 VRB03KT P6SM SCT250
     FM241500 27004KT P6SM VCSH SCT030=



000
FTUS44 KHGX 232057 AAC
TAFHOU
TAF AMD
KHOU 232057Z 2321/2418 12008KT P6SM SCT050
     FM232200 12008KT P6SM VCTS SCT050CB
     FM240100 11009KT P6SM FEW040
     FM240300 VRB03KT P6SM SCT250
     FM241500 27004KT P6SM VCSH SCT030=



000
FTUS44 KHGX 232055 AAA
TAFIAH
TAF AMD
KIAH 232055Z 2321/2424 VRB04KT P6SM SCT045
     FM232200 09007KT P6SM VCTS SCT045CB
     FM240100 11009KT P6SM FEW040
     FM240300 VRB03KT P6SM SCT250
     FM241600 VRB04KT P6SM SCT030
     FM242100 VRB04KT P6SM VCTS SCT040CB=



000
FTUS44 KHGX 232055 AAA
TAFIAH
TAF AMD
KIAH 232055Z 2321/2424 VRB04KT P6SM SCT045
     FM232200 09007KT P6SM VCTS SCT045CB
     FM240100 11009KT P6SM FEW040
     FM240300 VRB03KT P6SM SCT250
     FM241600 VRB04KT P6SM SCT030
     FM242100 VRB04KT P6SM VCTS SCT040CB=



000
FTUS44 KHGX 232035 AAA
TAFGLS
TAF AMD
KGLS 232035Z 2321/2418 15008KT P6SM VCSH SCT035
     FM240300 VRB05KT P6SM FEW030
     FM241200 23005KT P6SM VCTS SCT030CB=



000
FTUS44 KHGX 232035 AAA
TAFGLS
TAF AMD
KGLS 232035Z 2321/2418 15008KT P6SM VCSH SCT035
     FM240300 VRB05KT P6SM FEW030
     FM241200 23005KT P6SM VCTS SCT030CB=



000
FTUS44 KHGX 232018 AAB
TAFHOU
TAF AMD
KHOU 232018Z 2320/2418 VRB04KT P6SM SCT030 SCT045
     FM232100 10007KT P6SM VCTS SCT045CB
     FM240000 11009KT P6SM FEW040
     FM240300 VRB03KT P6SM SCT250
     FM241500 27004KT P6SM VCSH SCT030=



000
FTUS44 KHGX 232018 AAB
TAFHOU
TAF AMD
KHOU 232018Z 2320/2418 VRB04KT P6SM SCT030 SCT045
     FM232100 10007KT P6SM VCTS SCT045CB
     FM240000 11009KT P6SM FEW040
     FM240300 VRB03KT P6SM SCT250
     FM241500 27004KT P6SM VCSH SCT030=



000
FTUS44 KHGX 232017 AAA
TAFSGR
TAF AMD
KSGR 232017Z 2320/2418 13006KT P6SM VCTS SCT050CB
      TEMPO 2320/2324 VRB15G25KT 5SM TSRA BR BKN030CB
     FM240300 VRB03KT P6SM SCT250
     FM241600 27004KT P6SM SCT030=



000
FTUS44 KHGX 232017 AAA
TAFSGR
TAF AMD
KSGR 232017Z 2320/2418 13006KT P6SM VCTS SCT050CB
      TEMPO 2320/2324 VRB15G25KT 5SM TSRA BR BKN030CB
     FM240300 VRB03KT P6SM SCT250
     FM241600 27004KT P6SM SCT030=



000
FTUS44 KHGX 231828 AAA
TAFHOU
TAF AMD
KHOU 231828Z 2318/2418 VRB04KT P6SM VCTS SCT030CB
      TEMPO 2318/2321 VRB15KT 3SM TSRA BR BKN025CB
     FM232100 10007KT P6SM VCTS SCT045CB
     FM240000 11009KT P6SM FEW040
     FM240300 VRB03KT P6SM SCT250
     FM241500 27004KT P6SM VCSH SCT030=



000
FTUS44 KHGX 231828 AAA
TAFHOU
TAF AMD
KHOU 231828Z 2318/2418 VRB04KT P6SM VCTS SCT030CB
      TEMPO 2318/2321 VRB15KT 3SM TSRA BR BKN025CB
     FM232100 10007KT P6SM VCTS SCT045CB
     FM240000 11009KT P6SM FEW040
     FM240300 VRB03KT P6SM SCT250
     FM241500 27004KT P6SM VCSH SCT030=



000
FTUS44 KHGX 231720
TAFIAH
TAF
KIAH 231720Z 2318/2424 04006KT P6SM SCT035
     FM232100 09007KT P6SM VCTS SCT045CB
     FM240000 11009KT P6SM FEW040
     FM240300 VRB03KT P6SM SCT250
     FM241600 VRB04KT P6SM SCT030
     FM242100 VRB04KT P6SM VCTS SCT040CB=



000
FTUS44 KHGX 231720
TAFSGR
TAF
KSGR 231720Z 2318/2418 27006KT P6SM FEW030 SCT060
     FM232200 13008KT P6SM VCTS SCT045CB
     FM240300 VRB03KT P6SM SCT250
     FM241600 27004KT P6SM SCT030=



000
FTUS44 KHGX 231720
TAFUTS
TAF
KUTS 231720Z 2318/2418 VRB03KT P6SM SCT050
     FM240100 00000KT P6SM SKC
     FM240900 VRB02KT 4SM BR FEW040
     FM241400 VRB03KT P6SM SCT030=



000
FTUS44 KHGX 231720
TAFLBX
TAF
KLBX 231720Z 2318/2418 17007KT P6SM VCTS BKN035CB
      TEMPO 2318/2319 4SM TSRA BR BKN015CB
     FM232200 14008KT P6SM VCTS SCT040CB
     FM240100 VRB03KT P6SM SCT250
     FM241500 24004KT P6SM VCTS SCT030CB=



000
FTUS44 KHGX 231720
TAFCXO
TAF
KCXO 231720Z 2318/2418 VRB04KT P6SM SCT040
     FM240000 VRB04KT P6SM SCT250
     FM240900 00000KT 4SM BR SKC
     FM241400 VRB04KT P6SM SCT030=



000
FTUS44 KHGX 231720
TAFCLL
TAF
KCLL 231720Z 2318/2418 03006KT P6SM SCT040
     FM240200 VRB03KT P6SM SCT250
     FM241500 VRB04KT P6SM SCT030=



000
FTUS44 KHGX 231720
TAFHOU
TAF
KHOU 231720Z 2318/2418 VRB04KT P6SM SCT030
     FM232100 10007KT P6SM VCTS SCT045CB
     FM240000 11009KT P6SM FEW040
     FM240300 VRB03KT P6SM SCT250
     FM241500 27004KT P6SM VCSH SCT030=



000
FTUS44 KHGX 231720
TAFHOU
TAF
KHOU 231720Z 2318/2418 VRB04KT P6SM SCT030
     FM232100 10007KT P6SM VCTS SCT045CB
     FM240000 11009KT P6SM FEW040
     FM240300 VRB03KT P6SM SCT250
     FM241500 27004KT P6SM VCSH SCT030=



000
FTUS44 KHGX 231720
TAFSGR
TAF
KSGR 231720Z 2318/2418 27006KT P6SM FEW030 SCT060
     FM232200 13008KT P6SM VCTS SCT045CB
     FM240300 VRB03KT P6SM SCT250
     FM241600 27004KT P6SM SCT030=



000
FTUS44 KHGX 231720
TAFUTS
TAF
KUTS 231720Z 2318/2418 VRB03KT P6SM SCT050
     FM240100 00000KT P6SM SKC
     FM240900 VRB02KT 4SM BR FEW040
     FM241400 VRB03KT P6SM SCT030=



000
FTUS44 KHGX 231720
TAFLBX
TAF
KLBX 231720Z 2318/2418 17007KT P6SM VCTS BKN035CB
      TEMPO 2318/2319 4SM TSRA BR BKN015CB
     FM232200 14008KT P6SM VCTS SCT040CB
     FM240100 VRB03KT P6SM SCT250
     FM241500 24004KT P6SM VCTS SCT030CB=



000
FTUS44 KHGX 231720
TAFIAH
TAF
KIAH 231720Z 2318/2424 04006KT P6SM SCT035
     FM232100 09007KT P6SM VCTS SCT045CB
     FM240000 11009KT P6SM FEW040
     FM240300 VRB03KT P6SM SCT250
     FM241600 VRB04KT P6SM SCT030
     FM242100 VRB04KT P6SM VCTS SCT040CB=



000
FTUS44 KHGX 231720
TAFCXO
TAF
KCXO 231720Z 2318/2418 VRB04KT P6SM SCT040
     FM240000 VRB04KT P6SM SCT250
     FM240900 00000KT 4SM BR SKC
     FM241400 VRB04KT P6SM SCT030=



000
FTUS44 KHGX 231720
TAFGLS
TAF
KGLS 231720Z 2318/2418 18006KT P6SM SCT030
     FM240300 VRB05KT P6SM FEW030
     FM241200 23005KT P6SM VCTS SCT030CB=



000
FTUS44 KHGX 231720
TAFGLS
TAF
KGLS 231720Z 2318/2418 18006KT P6SM SCT030
     FM240300 VRB05KT P6SM FEW030
     FM241200 23005KT P6SM VCTS SCT030CB=



000
FTUS44 KHGX 231720
TAFCLL
TAF
KCLL 231720Z 2318/2418 03006KT P6SM SCT040
     FM240200 VRB03KT P6SM SCT250
     FM241500 VRB04KT P6SM SCT030=



000
FTUS44 KHGX 231558 AAB
TAFSGR
TAF AMD
KSGR 231558Z 2316/2412 13007KT P6SM VCTS FEW025 BKN040CB BKN070
      TEMPO 2316/2317 5SM TSRA BR BKN025CB
     FM232100 13008KT P6SM SCT045
     FM240300 VRB03KT P6SM SCT250=



000
FTUS44 KHGX 231558 AAB
TAFSGR
TAF AMD
KSGR 231558Z 2316/2412 13007KT P6SM VCTS FEW025 BKN040CB BKN070
      TEMPO 2316/2317 5SM TSRA BR BKN025CB
     FM232100 13008KT P6SM SCT045
     FM240300 VRB03KT P6SM SCT250=



    US Dept of Commerce
    National Oceanic and Atmospheric Administration
    National Weather Service
    1325 East West Highway
    Silver Spring, MD 20910
    Page Author: NWS Internet Services Team
Disclaimer
Information Quality
Credits
Glossary
Privacy Policy
Freedom of Information Act (FOIA)
About Us
Career Opportunities